Time;durP1;ratioP1;P1;durP2;ratioP2;P2;SDS_P1;SDS_P2;PMS_P1;PMS_P2;Temp;Humidity;BMP_temperature;BMP_pressure;BME280_temperature;BME280_humidity;BME280_pressure;Samples;Min_cycle;Max_cycle;Signal;HPM_P1;HPM_P2
2023/07/11 00:00:58;;;;;;;4.10;1.92;;;21.00;99.90;;;;;;5073556;28;20099;-86
2023/07/11 00:03:39;;;;;;;9.82;3.25;;;21.30;99.90;;;;;;5073531;28;20052;-85
2023/07/11 00:06:17;;;;;;;6.03;2.10;;;20.90;99.90;;;;;;5073341;28;20458;-88
2023/07/11 00:08:43;;;;;;;2.80;1.73;;;20.90;99.90;;;;;;5073772;28;20032;-87
2023/07/11 00:11:24;;;;;;;4.05;1.90;;;21.00;99.90;;;;;;5073380;28;20024;-87
2023/07/11 00:13:50;;;;;;;3.58;1.90;;;21.00;99.90;;;;;;5073942;28;20028;-87
2023/07/11 00:16:17;;;;;;;6.88;2.47;;;21.00;99.90;;;;;;5073438;28;20021;-86
2023/07/11 00:18:44;;;;;;;4.28;2.60;;;21.00;99.90;;;;;;5072955;28;20028;-87
2023/07/11 00:21:21;;;;;;;5.05;2.45;;;21.40;99.90;;;;;;5073426;28;20048;-86
2023/07/11 00:23:47;;;;;;;3.35;2.15;;;21.00;99.90;;;;;;5073224;28;20028;-87
2023/07/11 00:26:13;;;;;;;4.00;2.42;;;21.10;99.90;;;;;;5072446;28;20480;-87
2023/07/11 00:28:38;;;;;;;6.10;2.38;;;21.20;99.90;;;;;;5073106;28;20035;-87
2023/07/11 00:31:20;;;;;;;7.47;2.83;;;21.10;99.90;;;;;;5072983;28;20752;-87
2023/07/11 00:33:46;;;;;;;5.82;2.75;;;21.20;99.90;;;;;;5052077;28;20116;-87
2023/07/11 00:36:11;;;;;;;6.65;2.40;;;21.10;99.90;;;;;;5053339;28;20048;-87
2023/07/11 00:38:37;;;;;;;3.67;2.50;;;21.20;99.90;;;;;;5053227;28;20476;-87
2023/07/11 00:41:05;;;;;;;8.68;3.03;;;21.10;99.90;;;;;;5052273;28;20465;-85
2023/07/11 00:43:31;;;;;;;3.88;2.80;;;21.20;99.90;;;;;;5053106;28;20082;-87
2023/07/11 00:46:17;;;;;;;3.53;2.20;;;21.20;99.90;;;;;;5052818;28;20107;-87
2023/07/11 00:48:50;;;;;;;6.80;2.58;;;21.20;99.90;;;;;;5052368;28;20063;-87
2023/07/11 00:51:30;;;;;;;2.05;1.80;;;21.10;99.90;;;;;;5053030;28;20366;-87
2023/07/11 00:54:09;;;;;;;4.20;2.40;;;21.10;99.90;;;;;;5052289;28;20056;-88
2023/07/11 00:56:40;;;;;;;3.00;2.28;;;21.10;99.90;;;;;;5052972;28;20104;-87
2023/07/11 00:59:08;;;;;;;5.30;2.53;;;21.60;99.90;;;;;;5052785;28;20143;-86
2023/07/11 01:01:59;;;;;;;5.25;2.70;;;21.10;99.90;;;;;;5052023;28;20457;-87
2023/07/11 01:04:25;;;;;;;6.50;2.63;;;21.10;99.90;;;;;;5053070;28;20025;-87
2023/07/11 01:06:50;;;;;;;3.40;2.50;;;21.10;99.90;;;;;;5052116;28;20033;-87
2023/07/11 01:09:37;;;;;;;6.22;2.33;;;21.20;99.90;;;;;;5052210;28;20032;-87
2023/07/11 01:12:07;;;;;;;5.63;2.47;;;21.10;99.90;;;;;;5051948;28;20441;-87
2023/07/11 01:14:33;;;;;;;;;;;21.10;99.90;;;;;;5052428;28;20021;-85
2023/07/11 01:16:58;;;;;;;4.03;2.38;;;21.10;99.90;;;;;;5052741;28;20359;-85
2023/07/11 01:19:24;;;;;;;2.88;2.03;;;21.10;99.90;;;;;;5052454;28;20021;-87
2023/07/11 01:21:50;;;;;;;5.93;2.17;;;21.00;99.90;;;;;;5051993;28;20534;-86
2023/07/11 01:24:16;;;;;;;4.47;2.10;;;21.00;99.90;;;;;;5066053;28;20005;-87
2023/07/11 01:26:56;;;;;;;4.55;2.42;;;21.00;99.90;;;;;;5070076;28;20131;-87
2023/07/11 01:29:22;;;;;;;6.20;2.53;;;21.00;99.90;;;;;;5058045;28;20025;-86
2023/07/11 01:31:47;;;;;;;4.47;2.53;;;21.10;99.90;;;;;;5052176;28;20359;-87
2023/07/11 01:34:13;;;;;;;6.18;2.38;;;21.10;99.90;;;;;;5052545;28;20104;-87
2023/07/11 01:36:38;;;;;;;3.47;2.17;;;21.00;99.90;;;;;;5051905;28;20063;-88
2023/07/11 01:39:21;;;;;;;5.07;2.28;;;21.20;99.90;;;;;;5052188;28;20365;-88
2023/07/11 01:41:47;;;;;;;3.83;2.28;;;21.10;99.90;;;;;;5051416;28;20038;-87
2023/07/11 01:44:13;;;;;;;3.13;2.20;;;21.00;99.90;;;;;;5051724;28;20423;-88
2023/07/11 01:46:38;;;;;;;3.50;2.13;;;21.00;99.90;;;;;;5052240;28;20043;-88
2023/07/11 01:49:04;;;;;;;2.53;1.90;;;20.80;99.90;;;;;;5052494;28;20033;-87
2023/07/11 01:51:46;;;;;;;7.30;2.30;;;21.40;99.90;;;;;;5051736;28;20037;-87
2023/07/11 01:54:11;;;;;;;4.40;2.10;;;21.30;99.90;;;;;;5052219;28;20036;-87
2023/07/11 01:56:37;;;;;;;5.70;2.20;;;21.00;99.90;;;;;;5052305;28;20036;-87
2023/07/11 01:59:04;;;;;;;2.88;2.25;;;21.40;99.90;;;;;;5052211;28;20445;-87
2023/07/11 02:01:47;;;;;;;4.60;2.03;;;20.80;99.90;;;;;;5056164;28;20033;-87
2023/07/11 02:04:21;;;;;;;3.90;1.95;;;21.00;99.90;;;;;;5060472;28;20027;-87
2023/07/11 02:07:04;;;;;;;2.97;1.77;;;21.40;99.90;;;;;;5075897;28;20131;-87
2023/07/11 02:09:30;;;;;;;3.05;2.10;;;21.00;99.90;;;;;;5076144;28;20127;-87
2023/07/11 02:11:56;;;;;;;4.05;1.88;;;21.00;99.90;;;;;;5075566;28;20078;-87
2023/07/11 02:14:21;;;;;;;2.92;1.88;;;21.00;99.90;;;;;;5076211;28;20029;-86
2023/07/11 02:17:03;;;;;;;4.00;2.10;;;21.00;99.90;;;;;;5075663;28;20537;-88
2023/07/11 02:19:29;;;;;;;3.45;1.98;;;21.00;99.90;;;;;;5075365;28;20036;-87
2023/07/11 02:21:54;;;;;;;4.32;1.73;;;21.00;99.90;;;;;;5075078;28;20021;-87
2023/07/11 02:24:20;;;;;;;6.53;2.03;;;20.90;99.90;;;;;;5075810;28;20077;-86
2023/07/11 02:26:47;;;;;;;3.85;2.08;;;20.90;99.90;;;;;;5074475;28;20140;-87
2023/07/11 02:29:31;;;;;;;5.03;1.63;;;21.00;99.90;;;;;;5075591;28;20107;-87
2023/07/11 02:31:56;;;;;;;6.10;1.70;;;20.90;99.90;;;;;;5074721;28;20100;-86
2023/07/11 02:34:22;;;;;;;3.45;1.52;;;20.90;99.90;;;;;;5075696;28;20493;-87
2023/07/11 02:36:50;;;;;;;5.30;2.22;;;20.90;99.90;;;;;;5075532;28;20460;-86
2023/07/11 02:39:19;;;;;;;5.30;1.88;;;21.10;99.90;;;;;;5075022;28;20020;-87
2023/07/11 02:41:45;;;;;;;5.50;1.55;;;20.80;99.90;;;;;;5075317;28;20025;-87
2023/07/11 02:44:11;;;;;;;4.72;1.75;;;20.80;99.90;;;;;;5075236;28;20031;-87
2023/07/11 02:46:36;;;;;;;4.60;1.73;;;20.70;99.90;;;;;;5074814;28;20039;-87
2023/07/11 02:49:20;;;;;;;5.28;1.85;;;20.70;99.90;;;;;;5075006;28;20107;-87
2023/07/11 02:51:46;;;;;;;4.07;1.65;;;20.80;99.90;;;;;;5075414;28;20024;-87
2023/07/11 02:54:12;;;;;;;3.90;1.85;;;20.70;99.90;;;;;;5074704;28;20361;-88
2023/07/11 02:56:37;;;;;;;3.45;1.67;;;21.20;99.90;;;;;;5075126;28;20021;-87
2023/07/11 02:59:03;;;;;;;5.10;2.05;;;21.00;99.90;;;;;;5075035;28;20029;-87
2023/07/11 03:01:46;;;;;;;5.38;1.67;;;20.60;99.90;;;;;;5074485;28;20029;-87
2023/07/11 03:04:12;;;;;;;5.38;1.88;;;20.60;99.90;;;;;;5075002;28;20029;-87
2023/07/11 03:06:37;;;;;;;5.53;1.90;;;20.50;99.90;;;;;;5074992;28;20040;-88
2023/07/11 03:09:03;;;;;;;2.53;1.73;;;20.60;99.90;;;;;;5074441;28;20357;-87
2023/07/11 03:11:28;;;;;;;4.40;1.80;;;20.50;99.90;;;;;;5092827;28;20019;-87
2023/07/11 03:14:22;;;;;;;5.68;2.17;;;20.50;99.90;;;;;;5100140;28;20001;-87
2023/07/11 03:16:51;;;;;;;8.20;1.83;;;20.50;99.90;;;;;;5066686;28;20056;-88
2023/07/11 03:19:19;;;;;;;5.77;2.43;;;21.00;99.90;;;;;;5074988;28;20170;-87
2023/07/11 03:21:57;;;;;;;4.32;2.15;;;20.80;99.90;;;;;;5074063;28;20054;-88
2023/07/11 03:24:22;;;;;;;5.72;2.25;;;20.50;99.90;;;;;;5074394;28;20104;-87
2023/07/11 03:26:48;;;;;;;5.88;2.13;;;20.60;99.90;;;;;;5074142;28;20123;-86
2023/07/11 03:29:14;;;;;;;3.45;1.90;;;20.50;99.90;;;;;;5074280;28;20473;-87
2023/07/11 03:31:58;;;;;;;3.28;1.98;;;20.50;99.90;;;;;;5074552;28;20024;-86
2023/07/11 03:34:24;;;;;;;4.55;1.92;;;20.50;99.90;;;;;;5074388;28;20496;-88
2023/07/11 03:36:49;;;;;;;5.82;1.90;;;20.50;99.90;;;;;;5073893;28;20033;-86
2023/07/11 03:39:15;;;;;;;4.78;2.00;;;20.50;99.90;;;;;;5074606;28;20510;-85
2023/07/11 03:41:55;;;;;;;3.40;1.83;;;20.50;99.90;;;;;;5074147;28;20599;-86
2023/07/11 03:44:21;;;;;;;7.15;2.30;;;20.70;99.90;;;;;;5073819;28;20043;-86
2023/07/11 03:46:47;;;;;;;5.18;2.00;;;20.50;99.90;;;;;;5073689;28;20477;-86
2023/07/11 03:49:12;;;;;;;7.07;2.97;;;20.50;99.90;;;;;;5074067;28;20021;-86
2023/07/11 03:51:38;;;;;;;3.70;2.45;;;20.50;99.90;;;;;;5073234;28;20028;-86
2023/07/11 03:54:03;;;;;;;4.43;2.30;;;20.50;99.90;;;;;;5073528;28;20403;-87
2023/07/11 03:56:44;;;;;;;7.03;2.83;;;20.40;99.90;;;;;;5073346;28;20120;-85
2023/07/11 03:59:10;;;;;;;8.20;3.08;;;20.30;99.90;;;;;;5073703;28;20499;-86
2023/07/11 04:01:35;;;;;;;6.72;2.70;;;20.60;99.90;;;;;;5073737;28;20028;-86
2023/07/11 04:04:01;;;;;;;6.15;3.80;;;20.70;99.90;;;;;;5072935;28;20529;-86
2023/07/11 04:06:27;;;;;;;5.63;3.10;;;20.30;99.90;;;;;;5073997;28;20028;-86
2023/07/11 04:08:52;;;;;;;5.22;3.10;;;20.60;99.90;;;;;;5073781;28;20021;-86
2023/07/11 04:11:18;;;;;;;4.70;3.15;;;20.30;99.90;;;;;;5058430;28;20446;-87
2023/07/11 04:14:05;;;;;;;5.90;2.78;;;20.30;99.90;;;;;;5047825;28;20041;-87
2023/07/11 04:16:31;;;;;;;6.88;3.40;;;20.20;99.90;;;;;;5046457;28;20101;-87
2023/07/11 04:18:57;;;;;;;6.70;4.03;;;20.20;99.90;;;;;;5052027;28;20461;-86
2023/07/11 04:21:22;;;;;;;4.78;3.72;;;20.20;99.90;;;;;;5053221;28;20033;-87
2023/07/11 04:23:49;;;;;;;7.45;4.55;;;20.10;99.90;;;;;;5053377;28;20025;-86
2023/07/11 04:26:15;;;;;;;8.73;4.20;;;20.10;99.90;;;;;;5052069;28;20051;-86
2023/07/11 04:28:40;;;;;;;8.35;4.22;;;20.10;99.90;;;;;;5053255;28;20037;-86
2023/07/11 04:31:21;;;;;;;6.18;4.90;;;20.80;99.90;;;;;;5052836;28;20021;-86
2023/07/11 04:33:55;;;;;;;7.63;4.25;;;20.00;99.90;;;;;;5053051;28;20025;-86
2023/07/11 04:36:24;;;;;;;9.07;4.93;;;20.00;99.90;;;;;;5051837;28;20063;-87
2023/07/11 04:38:49;;;;;;;7.97;4.65;;;20.00;99.90;;;;;;5053735;28;20877;-87
2023/07/11 04:41:15;;;;;;;8.18;4.95;;;20.20;99.90;;;;;;5052320;28;20036;-86
2023/07/11 04:43:41;;;;;;;18.05;5.75;;;20.00;99.90;;;;;;5051519;28;20777;-87
2023/07/11 04:46:08;;;;;;;12.55;5.97;;;20.30;99.90;;;;;;5051517;28;20100;-87
2023/07/11 04:48:34;;;;;;;7.25;5.50;;;19.90;99.90;;;;;;5051907;28;20040;-87
2023/07/11 04:51:03;;;;;;;8.45;4.28;;;20.00;99.90;;;;;;5052315;28;20393;-87
2023/07/11 04:53:58;;;;;;;8.98;4.63;;;20.60;99.90;;;;;;5052654;28;20116;-87
2023/07/11 04:56:40;;;;;;;10.57;5.18;;;20.00;99.90;;;;;;5042257;28;20024;-87
2023/07/11 04:59:05;;;;;;;6.18;4.50;;;19.90;99.90;;;;;;5076966;28;20028;-87
2023/07/11 05:01:31;;;;;;;8.93;5.10;;;20.00;99.90;;;;;;5070971;28;20036;-87
2023/07/11 05:03:56;;;;;;;7.90;4.57;;;20.00;99.90;;;;;;5053353;28;20021;-87
2023/07/11 05:06:22;;;;;;;5.30;4.40;;;20.00;99.90;;;;;;5052849;28;20035;-87
2023/07/11 05:08:48;;;;;;;10.30;4.72;;;20.10;99.90;;;;;;5052426;28;20024;-87
2023/07/11 05:11:16;;;;;;;9.10;5.25;;;20.00;99.90;;;;;;5053034;28;20032;-87
2023/07/11 05:13:57;;;;;;;5.72;4.70;;;20.60;99.90;;;;;;5052907;28;20045;-87
2023/07/11 05:16:28;;;;;;;7.95;5.20;;;20.00;99.90;;;;;;5053098;28;20013;-87
2023/07/11 05:18:55;;;;;;;;;;;20.50;99.90;;;;;;5053152;28;20029;-86
2023/07/11 05:21:20;;;;;;;13.07;5.95;;;20.00;99.90;;;;;;5052167;28;19913;-86
2023/07/11 05:23:46;;;;;;;12.43;5.20;;;20.00;99.90;;;;;;5052070;28;20074;-86
2023/07/11 05:26:30;;;;;;;7.93;5.68;;;20.40;99.90;;;;;;5048782;28;20044;-86
2023/07/11 05:28:56;;;;;;;6.55;5.20;;;20.00;99.90;;;;;;5051655;28;20094;-86
2023/07/11 05:31:22;;;;;;;9.77;6.50;;;20.00;99.90;;;;;;5052313;28;20029;-88
2023/07/11 05:33:48;;;;;;;6.50;5.47;;;20.00;99.90;;;;;;5053826;28;20107;-87
2023/07/11 05:38:53;;;;;;;13.68;5.65;;;20.00;99.90;;;;;;5053022;28;20051;-87
2023/07/11 05:41:19;;;;;;;8.65;5.72;;;20.10;99.90;;;;;;5056374;28;20033;-87
2023/07/11 05:43:45;;;;;;;7.72;5.97;;;20.10;99.90;;;;;;5055304;28;20116;-88
2023/07/11 05:46:13;;;;;;;13.02;6.15;;;20.40;99.90;;;;;;5055850;28;20556;-87
2023/07/11 05:48:39;;;;;;;12.50;5.60;;;20.20;99.90;;;;;;5051819;28;20032;-86
2023/07/11 05:51:07;;;;;;;6.47;5.63;;;20.20;99.90;;;;;;5052695;28;20082;-87
2023/07/11 05:53:33;;;;;;;8.98;5.07;;;20.30;99.90;;;;;;5055970;28;20021;-86
2023/07/11 05:55:58;;;;;;;8.75;5.07;;;20.50;99.90;;;;;;5055380;28;20021;-87
2023/07/11 05:58:31;;;;;;;10.50;5.68;;;20.40;99.90;;;;;;5048461;28;20151;-87
2023/07/11 06:01:06;;;;;;;8.27;5.57;;;20.40;99.90;;;;;;5055487;28;20499;-87
2023/07/11 06:03:41;;;;;;;5.57;4.97;;;21.20;99.90;;;;;;5053960;28;20041;-87
2023/07/11 06:06:21;;;;;;;13.40;5.28;;;20.50;99.90;;;;;;5052970;28;20021;-86
2023/07/11 06:08:56;;;;;;;8.57;5.63;;;20.80;99.90;;;;;;5053031;28;20082;-87
2023/07/11 06:11:22;;;;;;;8.02;5.47;;;20.60;99.90;;;;;;5055845;28;20021;-89
2023/07/11 06:13:47;;;;;;;8.98;6.03;;;20.50;99.90;;;;;;5056404;28;20438;-88
2023/07/11 06:16:15;;;;;;;6.53;4.88;;;20.60;99.90;;;;;;5056789;28;20025;-89
2023/07/11 06:18:41;;;;;;;8.40;5.07;;;20.60;99.90;;;;;;5069790;23;20099;-89
2023/07/11 06:21:09;;;;;;;7.28;4.97;;;20.60;99.90;;;;;;5055784;28;20492;-88
2023/07/11 06:23:36;;;;;;;8.77;5.10;;;20.60;99.90;;;;;;5055981;28;20052;-87
2023/07/11 06:26:01;;;;;;;9.25;4.50;;;20.80;99.90;;;;;;5055772;28;20024;-88
2023/07/11 06:28:27;;;;;;;6.82;4.70;;;20.70;99.90;;;;;;5055718;28;20039;-89
2023/07/11 06:31:00;;;;;;;7.68;4.85;;;20.80;99.90;;;;;;5055796;28;20017;-88
2023/07/11 06:33:26;;;;;;;11.68;4.63;;;20.80;99.90;;;;;;5055110;28;20091;-88
2023/07/11 06:35:52;;;;;;;6.40;4.80;;;20.90;99.90;;;;;;5055199;28;20020;-88
2023/07/11 06:38:19;;;;;;;8.75;5.30;;;20.90;99.90;;;;;;5055301;28;20024;-88
2023/07/11 06:40:49;;;;;;;10.95;5.20;;;21.20;99.90;;;;;;5055863;28;20044;-87
2023/07/11 06:43:15;;;;;;;;;;;21.00;99.90;;;;;;5056347;28;20144;-87
2023/07/11 06:46:16;;;;;;;8.82;5.18;;;21.10;99.90;;;;;;5078289;28;19912;-87
2023/07/11 06:48:42;;;;;;;5.53;4.55;;;21.00;99.90;;;;;;5063790;28;20097;-89
2023/07/11 06:51:10;;;;;;;6.82;4.88;;;21.60;99.90;;;;;;5056122;28;20025;-89
2023/07/11 06:53:38;;;;;;;7.45;5.10;;;21.10;99.90;;;;;;5056440;28;20075;-89
2023/07/11 06:56:13;;;;;;;5.40;4.85;;;21.20;99.90;;;;;;5055619;28;20049;-90
2023/07/11 06:58:38;;;;;;;9.30;5.38;;;21.20;99.90;;;;;;5054728;28;20033;-88
2023/07/11 07:01:06;;;;;;;10.95;4.57;;;21.30;99.90;;;;;;5053308;28;20350;-88
2023/07/11 07:03:32;;;;;;;10.40;4.15;;;21.30;99.90;;;;;;5055589;28;20373;-94
2023/07/11 07:06:06;;;;;;;6.03;3.83;;;21.40;99.90;;;;;;5056467;28;20457;-91
2023/07/11 07:08:32;;;;;;;7.25;4.03;;;21.90;99.90;;;;;;5054464;28;20028;-90
2023/07/11 07:11:13;;;;;;;9.75;3.55;;;21.50;99.90;;;;;;5054112;28;20104;-87
2023/07/11 07:13:39;;;;;;;5.80;4.50;;;21.50;99.90;;;;;;5055633;28;20032;-92
2023/07/11 07:16:04;;;;;;;5.30;3.50;;;21.60;99.90;;;;;;5054582;28;20066;-92
2023/07/11 07:18:34;;;;;;;6.22;3.75;;;21.70;99.90;;;;;;5057232;28;20760;-90
2023/07/11 07:21:12;;;;;;;4.47;2.72;;;21.70;99.90;;;;;;5064011;28;20123;-90
2023/07/11 07:23:40;;;;;;;7.18;3.15;;;22.10;99.90;;;;;;5062739;28;20069;-90
2023/07/11 07:26:10;;;;;;;9.57;2.85;;;21.80;99.90;;;;;;5069098;28;20029;-87
2023/07/11 07:28:42;;;;;;;8.20;3.30;;;21.80;99.90;;;;;;5059861;28;20040;-87
2023/07/11 07:31:09;;;;;;;9.23;3.50;;;21.90;99.90;;;;;;5067896;28;20025;-89
2023/07/11 07:33:37;;;;;;;10.63;3.10;;;22.00;99.90;;;;;;5065783;28;20025;-91
2023/07/11 07:36:06;;;;;;;7.78;3.30;;;22.10;99.90;;;;;;5067539;28;20024;-88
2023/07/11 07:38:47;;;;;;;9.23;2.58;;;22.10;99.90;;;;;;5033865;28;20079;-87
2023/07/11 07:41:13;;;;;;;4.70;2.80;;;22.20;99.90;;;;;;5064243;28;20033;-88
2023/07/11 07:43:39;;;;;;;5.95;2.95;;;22.20;99.90;;;;;;5062507;28;20515;-88
2023/07/11 07:46:06;;;;;;;5.55;3.15;;;22.30;99.90;;;;;;5059697;28;20109;-89
2023/07/11 07:48:32;;;;;;;5.32;2.90;;;22.30;99.90;;;;;;5063952;28;20045;-90
2023/07/11 07:51:09;;;;;;;7.68;2.83;;;22.30;99.90;;;;;;5056773;28;20025;-90
2023/07/11 07:53:35;;;;;;;7.45;4.30;;;22.40;99.90;;;;;;5056986;28;20021;-89
2023/07/11 07:56:10;;;;;;;10.18;3.10;;;22.40;99.90;;;;;;5073248;28;20033;-89
2023/07/11 07:58:36;;;;;;;7.07;3.08;;;22.50;99.90;;;;;;5069180;28;20055;-88
2023/07/11 08:01:03;;;;;;;8.93;3.35;;;22.50;99.90;;;;;;5059993;28;20488;-89
2023/07/11 08:03:31;;;;;;;8.93;2.95;;;22.50;99.90;;;;;;5059105;28;20025;-91
2023/07/11 08:05:58;;;;;;;4.63;3.08;;;22.60;99.90;;;;;;5051649;28;20031;-89
2023/07/11 08:08:24;;;;;;;9.18;2.85;;;23.10;99.90;;;;;;5054111;28;20044;-85
2023/07/11 08:11:06;;;;;;;8.90;2.70;;;22.70;99.90;;;;;;5051303;28;20063;-86
2023/07/11 08:13:34;;;;;;;5.82;2.30;;;22.80;99.90;;;;;;5050422;28;20041;-87
2023/07/11 08:16:01;;;;;;;7.43;2.53;;;23.40;99.90;;;;;;5053158;28;20033;-87
2023/07/11 08:18:27;;;;;;;8.80;2.70;;;22.90;99.90;;;;;;5051256;28;20048;-86
2023/07/11 08:20:54;;;;;;;9.30;2.33;;;23.40;99.90;;;;;;5053662;28;20036;-87
2023/07/11 08:23:20;;;;;;;5.63;2.85;;;22.90;99.90;;;;;;5054339;28;20025;-88
2023/07/11 08:25:54;;;;;;;5.07;2.50;;;23.00;99.90;;;;;;5053428;28;20108;-87
2023/07/11 08:28:20;;;;;;;4.38;2.47;;;23.00;99.90;;;;;;5035963;28;20039;-90
2023/07/11 08:30:45;;;;;;;5.20;2.60;;;23.20;99.90;;;;;;5061701;28;20033;-90
2023/07/11 08:33:11;;;;;;;5.60;2.30;;;23.00;99.90;;;;;;5076931;28;20017;-85
2023/07/11 08:35:37;;;;;;;5.15;2.03;;;23.00;99.90;;;;;;5059979;28;20388;-88
2023/07/11 08:38:03;;;;;;;7.20;2.05;;;23.00;99.90;;;;;;5053786;28;20025;-89
2023/07/11 08:40:38;;;;;;;7.30;2.50;;;23.00;99.90;;;;;;5052994;28;20013;-85
2023/07/11 08:43:05;;;;;;;5.82;2.10;;;23.10;99.90;;;;;;5052964;28;20079;-86
2023/07/11 08:45:45;;;;;;;8.75;2.92;;;23.70;99.90;;;;;;5052227;28;20461;-86
2023/07/11 08:48:17;;;;;;;;;;;23.10;99.90;;;;;;5053205;28;20396;-85
2023/07/11 08:50:54;;;;;;;5.07;2.60;;;23.10;99.90;;;;;;5052508;28;19905;-83
2023/07/11 08:53:51;;;;;;;5.75;2.38;;;23.10;99.90;;;;;;5051495;28;20029;-85
2023/07/11 08:56:36;;;;;;;3.65;2.30;;;23.10;99.90;;;;;;5049080;28;20469;-85
2023/07/11 08:59:07;;;;;;;5.80;2.80;;;23.40;99.90;;;;;;5050479;28;20033;-85
2023/07/11 09:02:00;;;;;;;4.68;2.85;;;23.20;99.90;;;;;;5050425;28;20028;-86
2023/07/11 09:04:27;;;;;;;6.55;2.63;;;23.30;99.90;;;;;;5051853;28;20096;-91
2023/07/11 09:06:54;;;;;;;4.53;2.22;;;23.80;99.90;;;;;;5051914;28;20036;-88
2023/07/11 09:09:20;;;;;;;6.20;2.15;;;23.40;99.90;;;;;;5051209;28;20032;-88
2023/07/11 09:12:07;;;;;;;11.32;2.92;;;23.90;99.90;;;;;;5050680;28;20017;-83
2023/07/11 09:14:51;;;;;;;7.00;2.60;;;23.50;99.90;;;;;;5050474;28;20029;-84
2023/07/11 09:17:44;;;;;;;13.35;2.85;;;23.50;99.90;;;;;;5051663;28;20071;-83
2023/07/11 09:20:20;;;;;;;6.32;3.22;;;23.60;99.90;;;;;;5028971;28;20068;-84
2023/07/11 09:22:53;;;;;;;4.25;2.50;;;23.60;99.90;;;;;;5031204;28;20080;-87
2023/07/11 09:25:26;;;;;;;5.22;2.05;;;23.60;99.90;;;;;;5030378;28;20162;-85
2023/07/11 09:27:59;;;;;;;7.93;2.97;;;23.70;99.90;;;;;;5027494;28;20029;-85
2023/07/11 09:30:35;;;;;;;34.15;2.72;;;23.70;99.90;;;;;;5030914;28;20025;-86
2023/07/11 09:33:22;;;;;;;5.90;2.60;;;23.80;99.90;;;;;;5031486;28;20032;-85
2023/07/11 09:35:50;;;;;;;4.45;2.42;;;23.80;99.90;;;;;;5030988;28;20367;-88
2023/07/11 09:38:37;;;;;;;4.75;2.13;;;23.80;99.90;;;;;;5032754;28;20108;-86
2023/07/11 09:41:13;;;;;;;5.50;2.10;;;23.80;99.90;;;;;;5031631;28;20032;-82
2023/07/11 09:43:39;;;;;;;4.43;1.90;;;23.90;99.80;;;;;;5032384;28;20036;-83
2023/07/11 09:46:15;;;;;;;9.27;2.65;;;24.10;99.70;;;;;;5032322;28;20416;-82
2023/07/11 09:48:44;;;;;;;7.05;2.13;;;23.90;99.30;;;;;;5033486;28;20041;-82
2023/07/11 09:51:22;;;;;;;3.58;1.95;;;24.20;98.90;;;;;;5028855;28;20029;-84
2023/07/11 09:53:47;;;;;;;5.97;2.20;;;23.90;98.90;;;;;;5032127;28;20057;-85
2023/07/11 09:56:16;;;;;;;8.10;3.05;;;23.90;99.20;;;;;;5031453;28;20115;-85
2023/07/11 09:59:06;;;;;;;4.65;2.55;;;23.90;99.60;;;;;;5032622;28;20478;-86
2023/07/11 10:01:44;;;;;;;7.70;2.67;;;24.00;99.80;;;;;;5032921;28;20392;-87
2023/07/11 10:08:46;;;;;;;11.07;2.47;;;23.90;99.40;;;;;;5072675;28;20413;-89
2023/07/11 10:11:13;;;;;;;10.00;3.05;;;23.90;99.90;;;;;;5074503;28;20009;-86
2023/07/11 10:13:44;;;;;;;19.73;3.13;;;23.80;99.90;;;;;;5067993;28;20021;-89
2023/07/11 10:16:17;;;;;;;11.13;2.50;;;23.80;99.60;;;;;;5065380;28;20020;-86
2023/07/11 10:18:48;;;;;;;5.90;2.58;;;23.60;99.60;;;;;;5082299;28;20001;-80
2023/07/11 10:21:18;;;;;;;8.93;3.00;;;23.70;99.80;;;;;;5081885;28;20097;-83
2023/07/11 10:23:48;;;;;;;6.28;2.50;;;23.80;99.90;;;;;;5054564;28;20028;-87
2023/07/11 10:26:22;;;;;;;6.95;2.97;;;23.70;99.90;;;;;;5059506;28;20032;-85
2023/07/11 10:29:58;;;;;;;4.25;2.33;;;23.80;99.90;;;;;;5059794;28;20028;-88
2023/07/11 10:32:56;;;;;;;9.48;3.75;;;23.80;99.90;;;;;;5002645;28;20506;-87
2023/07/11 10:35:48;;;;;;;9.07;4.03;;;23.80;99.90;;;;;;5004718;28;20113;-88
2023/07/11 10:39:04;;;;;;;12.55;3.55;;;23.90;99.90;;;;;;5005532;28;20019;-85
2023/07/11 10:42:05;;;;;;;7.03;3.45;;;23.80;99.90;;;;;;5033040;28;20087;-87
2023/07/11 10:44:36;;;;;;;7.43;3.05;;;23.90;99.90;;;;;;5036659;28;20239;-85
2023/07/11 10:47:04;;;;;;;6.90;2.95;;;23.90;99.90;;;;;;5047342;28;20044;-84
2023/07/11 10:49:40;;;;;;;5.68;3.05;;;24.00;99.90;;;;;;5047544;28;20485;-84
2023/07/11 10:52:12;;;;;;;18.65;4.78;;;24.00;99.90;;;;;;5046614;28;20559;-79
2023/07/11 10:54:54;;;;;;;5.10;3.15;;;24.10;99.90;;;;;;5047634;28;20029;-78
2023/07/11 10:57:39;;;;;;;7.15;2.92;;;24.10;99.90;;;;;;5046439;28;20025;-89
2023/07/11 11:00:14;;;;;;;5.35;3.35;;;24.10;99.90;;;;;;5045789;28;20442;-85
2023/07/11 11:02:50;;;;;;;6.40;3.58;;;24.10;99.90;;;;;;5046574;28;20427;-84
2023/07/11 11:05:35;;;;;;;6.10;2.95;;;24.20;99.90;;;;;;5043139;28;20029;-84
2023/07/11 11:08:36;;;;;;;6.38;3.90;;;24.20;99.90;;;;;;5045971;28;20456;-85
2023/07/11 11:11:12;;;;;;;5.93;3.40;;;24.30;99.90;;;;;;5047056;28;20083;-86
2023/07/11 11:14:12;;;;;;;7.50;3.22;;;24.40;99.90;;;;;;5048496;28;20025;-85
2023/07/11 11:17:02;;;;;;;16.52;4.15;;;24.40;99.90;;;;;;5049188;28;20033;-87
2023/07/11 11:19:56;;;;;;;7.93;3.45;;;24.40;99.90;;;;;;5038091;28;20057;-87
2023/07/11 11:22:45;;;;;;;8.57;4.20;;;24.40;99.90;;;;;;5039353;28;20440;-84
2023/07/11 11:25:45;;;;;;;11.63;3.72;;;24.50;99.90;;;;;;5056429;28;20465;-81
2023/07/11 11:28:38;;;;;;;6.80;4.00;;;24.40;99.90;;;;;;5053249;28;20501;-79
2023/07/11 11:31:19;;;;;;;16.15;3.78;;;24.40;99.90;;;;;;5054954;28;20025;-83
2023/07/11 11:34:04;;;;;;;7.25;3.10;;;24.50;99.90;;;;;;5037005;28;20025;-86
2023/07/11 11:36:41;;;;;;;7.55;3.65;;;24.50;99.90;;;;;;5046252;28;20025;-84
2023/07/11 11:39:25;;;;;;;9.43;4.20;;;24.50;99.90;;;;;;5044479;28;20029;-89
2023/07/11 11:42:02;;;;;;;9.48;3.58;;;24.60;99.90;;;;;;5034567;28;20028;-89
2023/07/11 11:44:48;;;;;;;8.13;3.78;;;24.70;99.90;;;;;;5034783;28;20115;-88
2023/07/11 11:47:14;;;;;;;8.43;3.58;;;24.60;99.90;;;;;;5034584;28;20113;-85
2023/07/11 11:49:43;;;;;;;8.40;3.00;;;24.70;99.90;;;;;;5034302;28;20030;-84
2023/07/11 11:52:08;;;;;;;6.78;3.10;;;24.60;99.90;;;;;;5060315;23;20475;-84
2023/07/11 11:54:42;;;;;;;6.53;3.00;;;24.70;99.90;;;;;;5053149;28;20096;-84
2023/07/11 11:57:19;;;;;;;9.30;3.50;;;24.80;99.90;;;;;;5052733;28;20422;-83
2023/07/11 11:59:45;;;;;;;6.78;3.15;;;24.80;99.90;;;;;;5052296;28;20525;-84
2023/07/11 12:02:16;;;;;;;4.57;2.97;;;24.80;99.90;;;;;;5052725;28;20051;-84
2023/07/11 12:05:01;;;;;;;8.95;3.63;;;24.90;99.90;;;;;;5057460;28;20017;-84
2023/07/11 12:07:33;;;;;;;5.72;3.00;;;25.00;99.90;;;;;;5075204;28;20032;-83
2023/07/11 12:10:00;;;;;;;4.80;3.13;;;25.00;99.90;;;;;;5068076;28;20032;-84
2023/07/11 12:12:53;;;;;;;3.78;3.22;;;25.10;99.90;;;;;;5054634;28;20071;-84
2023/07/11 12:15:28;;;;;;;8.27;3.47;;;25.20;99.90;;;;;;5054523;28;20025;-84
2023/07/11 12:17:54;;;;;;;6.95;3.63;;;25.20;99.90;;;;;;5053508;28;20021;-84
2023/07/11 12:20:24;;;;;;;6.88;3.72;;;25.30;99.90;;;;;;5054662;28;20029;-84
2023/07/11 12:22:50;;;;;;;;;;;25.40;99.90;;;;;;5053950;28;20025;-84
2023/07/11 12:25:22;;;;;;;10.68;3.40;;;25.20;99.90;;;;;;5054359;28;19973;-84
2023/07/11 12:28:01;;;;;;;4.97;2.95;;;25.30;99.90;;;;;;5054021;28;20467;-85
2023/07/11 12:30:27;;;;;;;4.35;3.15;;;25.40;99.90;;;;;;5052551;28;20029;-85
2023/07/11 12:33:35;;;;;;;5.72;3.05;;;25.40;99.60;;;;;;5054082;28;20743;-84
2023/07/11 12:36:36;;;;;;;6.75;2.72;;;25.50;99.90;;;;;;5053300;28;20035;-83
2023/07/11 12:39:37;;;;;;;11.02;3.72;;;25.50;99.80;;;;;;5035818;28;20060;-85
2023/07/11 12:42:35;;;;;;;10.95;3.50;;;25.60;99.90;;;;;;5044684;28;20017;-85
2023/07/11 12:45:01;;;;;;;8.75;3.60;;;25.60;99.70;;;;;;5027672;28;20230;-84
2023/07/11 12:47:28;;;;;;;11.57;3.50;;;25.70;99.60;;;;;;5047463;28;20063;-83
2023/07/11 12:49:55;;;;;;;7.80;3.25;;;25.90;99.90;;;;;;5053427;28;20013;-83
2023/07/11 12:52:24;;;;;;;6.65;3.17;;;25.90;99.40;;;;;;5052677;28;20067;-83
2023/07/11 12:54:49;;;;;;;5.72;2.95;;;25.90;99.60;;;;;;5053131;28;20047;-85
2023/07/11 12:57:19;;;;;;;4.95;3.13;;;25.90;99.60;;;;;;5052792;28;20477;-85
2023/07/11 12:59:45;;;;;;;5.20;2.85;;;26.00;99.40;;;;;;5052767;28;20471;-85
2023/07/11 13:02:15;;;;;;;3.85;2.92;;;26.00;99.30;;;;;;5053063;28;20029;-84
2023/07/11 13:04:45;;;;;;;9.35;3.47;;;26.00;99.20;;;;;;5053603;28;20043;-84
2023/07/11 13:07:21;;;;;;;12.18;3.72;;;26.10;99.90;;;;;;5052856;28;20493;-85
2023/07/11 13:09:52;;;;;;;6.95;3.67;;;26.10;99.20;;;;;;5052994;28;20029;-84
2023/07/11 13:12:22;;;;;;;6.68;2.90;;;26.10;99.50;;;;;;5052223;28;20032;-83
2023/07/11 13:14:49;;;;;;;9.75;3.63;;;26.30;99.70;;;;;;5053054;28;20032;-84
2023/07/11 13:17:25;;;;;;;9.88;3.60;;;26.20;99.90;;;;;;5053172;28;20064;-85
2023/07/11 13:19:59;;;;;;;4.35;2.70;;;26.40;99.20;;;;;;5051918;28;20436;-84
2023/07/11 13:22:25;;;;;;;8.35;2.92;;;26.30;99.40;;;;;;5053161;28;20051;-84